Time;durP1;ratioP1;P1;durP2;ratioP2;P2;SDS_P1;SDS_P2;PMS_P1;PMS_P2;Temp;Humidity;BMP_temperature;BMP_pressure;BME280_temperature;BME280_humidity;BME280_pressure;Samples;Min_cycle;Max_cycle;Signal;HPM_P1;HPM_P2
2022/05/28 00:00:04;;;;;;;4.60;2.83;;;15.00;99.90;;;;;;5114664;28;20612;-73
2022/05/28 00:02:30;;;;;;;8.10;2.80;;;14.90;99.90;;;;;;5115158;28;21151;-74
2022/05/28 00:04:57;;;;;;;5.37;3.30;;;14.80;99.90;;;;;;5113408;28;21138;-73
2022/05/28 00:07:24;;;;;;;5.47;2.20;;;14.70;99.90;;;;;;5114854;28;20615;-73
2022/05/28 00:09:50;;;;;;;10.20;2.90;;;14.60;99.90;;;;;;5114106;28;21005;-73
2022/05/28 00:12:17;;;;;;;5.60;2.60;;;14.60;99.90;;;;;;5115287;28;20665;-73
2022/05/28 00:14:43;;;;;;;6.00;2.63;;;14.50;99.90;;;;;;5114358;28;20976;-73
2022/05/28 00:17:10;;;;;;;6.03;2.70;;;14.40;99.90;;;;;;5115297;28;20615;-73
2022/05/28 00:19:36;;;;;;;16.37;3.80;;;14.20;99.90;;;;;;5113825;28;20619;-73
2022/05/28 00:22:03;;;;;;;7.40;2.50;;;14.20;99.90;;;;;;5114976;28;20613;-73
2022/05/28 00:24:29;;;;;;;8.30;2.73;;;14.10;99.90;;;;;;5117261;28;20594;-73
2022/05/28 00:26:56;;;;;;;6.40;3.00;;;14.00;99.90;;;;;;5118662;28;20612;-74
2022/05/28 00:29:22;;;;;;;6.27;2.20;;;13.90;99.90;;;;;;5118524;28;20656;-74
2022/05/28 00:31:49;;;;;;;4.47;2.30;;;13.80;99.90;;;;;;5118289;28;20604;-74
2022/05/28 00:34:15;;;;;;;9.83;2.43;;;13.70;99.90;;;;;;5101238;28;20620;-73
2022/05/28 00:36:41;;;;;;;8.13;2.80;;;13.70;99.90;;;;;;5117091;28;20597;-73
2022/05/28 00:39:08;;;;;;;4.97;2.80;;;13.50;99.90;;;;;;5117640;28;21147;-73
2022/05/28 00:41:35;;;;;;;10.60;2.93;;;13.40;99.90;;;;;;5118154;28;20608;-73
2022/05/28 00:44:04;;;;;;;9.23;2.37;;;13.40;99.90;;;;;;5117626;27;20624;-74
2022/05/28 00:46:32;;;;;;;9.13;3.20;;;13.40;99.90;;;;;;5118000;28;20616;-74
2022/05/28 00:49:02;;;;;;;7.03;2.33;;;13.40;99.90;;;;;;5118029;28;20677;-72
2022/05/28 00:51:32;;;;;;;4.50;2.20;;;13.40;99.90;;;;;;5118042;28;20577;-72
2022/05/28 00:54:03;;;;;;;5.43;2.30;;;13.40;99.90;;;;;;5118673;28;20661;-73
2022/05/28 00:56:31;;;;;;;4.90;3.50;;;13.30;99.90;;;;;;5117977;28;20632;-72
2022/05/28 00:58:58;;;;;;;9.50;2.33;;;13.20;99.90;;;;;;5117871;28;20598;-75
2022/05/28 01:01:29;;;;;;;6.80;2.42;;;13.10;99.90;;;;;;5117235;28;20615;-72
2022/05/28 01:04:15;;;;;;;6.10;2.60;;;13.10;99.90;;;;;;5116981;28;20182;-73
2022/05/28 01:07:16;;;;;;;9.13;2.67;;;12.90;99.90;;;;;;5117248;28;20640;-73
2022/05/28 01:09:55;;;;;;;5.82;2.47;;;12.80;99.90;;;;;;5076690;28;20221;-72
2022/05/28 01:12:49;;;;;;;8.27;3.65;;;12.80;99.90;;;;;;5077108;28;20192;-73
2022/05/28 01:15:25;;;;;;;8.02;2.20;;;12.70;99.90;;;;;;5076934;28;20176;-73
2022/05/28 01:18:17;;;;;;;11.38;2.72;;;12.70;99.90;;;;;;5076406;28;20697;-73
2022/05/28 01:20:51;;;;;;;8.85;2.33;;;12.60;99.90;;;;;;5072576;28;20299;-73
2022/05/28 01:23:30;;;;;;;6.60;2.90;;;12.40;99.90;;;;;;5076384;28;20649;-73
2022/05/28 01:26:07;;;;;;;8.73;2.78;;;12.40;99.90;;;;;;5075907;28;20196;-73
2022/05/28 01:28:42;;;;;;;8.80;3.20;;;12.40;99.90;;;;;;5077255;28;20641;-73
2022/05/28 01:31:11;;;;;;;10.05;2.70;;;12.40;99.90;;;;;;5077011;28;20207;-73
2022/05/28 01:33:41;;;;;;;10.82;2.90;;;12.40;99.90;;;;;;5076885;28;20256;-73
2022/05/28 01:36:11;;;;;;;11.23;2.65;;;12.40;99.90;;;;;;5075443;28;20640;-73
2022/05/28 01:38:40;;;;;;;10.38;2.25;;;12.40;99.90;;;;;;5075773;28;20248;-73
2022/05/28 01:41:08;;;;;;;6.03;2.58;;;12.40;99.90;;;;;;5074693;28;20230;-73
2022/05/28 01:43:40;;;;;;;5.63;2.92;;;12.30;99.90;;;;;;5076126;28;20192;-73
2022/05/28 01:46:08;;;;;;;6.18;2.45;;;12.20;99.90;;;;;;5075962;28;20544;-73
2022/05/28 01:48:37;;;;;;;5.75;2.85;;;12.20;99.90;;;;;;5075809;28;20605;-73
2022/05/28 01:51:07;;;;;;;5.93;2.60;;;12.20;99.90;;;;;;5075557;28;20557;-73
2022/05/28 01:56:21;;;;;;;5.30;2.20;;;12.20;99.90;;;;;;5075676;28;20184;-73
2022/05/28 01:58:48;;;;;;;11.25;2.45;;;12.00;99.90;;;;;;5075233;28;20855;-73
2022/05/28 02:01:15;;;;;;;8.00;2.60;;;11.80;99.90;;;;;;5075586;28;20200;-74
2022/05/28 02:03:44;;;;;;;4.43;1.85;;;11.50;99.90;;;;;;5073736;28;20207;-73
2022/05/28 02:06:11;;;;;;;4.15;2.55;;;11.10;99.90;;;;;;5075037;28;20220;-73
2022/05/28 02:08:42;;;;;;;7.47;2.38;;;10.90;99.90;;;;;;5103724;28;20313;-74
2022/05/28 02:11:15;;;;;;;7.88;2.92;;;10.80;99.90;;;;;;5115577;28;20198;-74
2022/05/28 02:13:57;;;;;;;5.85;2.55;;;10.90;99.90;;;;;;5115865;28;20235;-74
2022/05/28 02:16:36;;;;;;;5.35;2.22;;;10.90;99.90;;;;;;5115605;28;20206;-74
2022/05/28 02:19:12;;;;;;;5.57;2.05;;;10.90;99.90;;;;;;5115817;28;20189;-73
2022/05/28 02:21:47;;;;;;;5.97;2.50;;;10.90;99.90;;;;;;5115337;28;20182;-73
2022/05/28 02:24:21;;;;;;;5.20;2.10;;;11.00;99.90;;;;;;5114264;28;20248;-73
2022/05/28 02:27:00;;;;;;;7.63;2.78;;;11.20;99.90;;;;;;5115617;28;20189;-73
2022/05/28 02:29:28;;;;;;;5.68;2.47;;;11.10;99.90;;;;;;5115211;28;20222;-73
2022/05/28 02:31:55;;;;;;;5.03;2.63;;;11.00;99.90;;;;;;5114760;28;20194;-73
2022/05/28 02:34:22;;;;;;;5.97;2.45;;;11.00;99.90;;;;;;5115150;28;20203;-73
2022/05/28 02:36:48;;;;;;;16.50;2.60;;;11.00;99.90;;;;;;5114961;28;20198;-73
2022/05/28 02:39:15;;;;;;;7.18;2.15;;;11.00;99.90;;;;;;5114934;28;20263;-73
2022/05/28 02:41:41;;;;;;;8.27;2.80;;;11.00;99.90;;;;;;5115138;28;20254;-73
2022/05/28 02:44:09;;;;;;;8.65;2.30;;;11.00;99.90;;;;;;5115305;28;20203;-73
2022/05/28 02:46:36;;;;;;;6.00;2.80;;;10.90;99.90;;;;;;5114328;28;20681;-73
2022/05/28 02:49:02;;;;;;;5.82;2.50;;;10.80;99.90;;;;;;5115006;28;20202;-73
2022/05/28 02:51:29;;;;;;;6.65;2.75;;;10.90;99.90;;;;;;5113958;28;20587;-73
2022/05/28 02:53:55;;;;;;;14.75;3.33;;;10.80;99.90;;;;;;5114742;28;20258;-73
2022/05/28 02:56:23;;;;;;;6.53;2.85;;;10.70;99.90;;;;;;5115017;28;20198;-73
2022/05/28 02:58:49;;;;;;;7.03;2.55;;;10.60;99.90;;;;;;5115252;28;20194;-73
2022/05/28 03:01:18;;;;;;;6.45;2.80;;;10.60;99.90;;;;;;5114851;28;20206;-73
2022/05/28 03:03:46;;;;;;;6.05;2.45;;;10.60;99.90;;;;;;5114945;28;20202;-73
2022/05/28 03:06:12;;;;;;;6.97;2.70;;;10.50;99.90;;;;;;5114816;28;20750;-74
2022/05/28 03:08:39;;;;;;;8.70;2.40;;;10.40;99.90;;;;;;5113473;28;20219;-73
2022/05/28 03:11:05;;;;;;;9.23;3.45;;;10.40;99.90;;;;;;5114648;28;20252;-74
2022/05/28 03:13:32;;;;;;;9.93;3.35;;;10.40;99.90;;;;;;5115443;28;20232;-73
2022/05/28 03:15:58;;;;;;;10.32;3.20;;;10.20;99.90;;;;;;5114987;28;20654;-73
2022/05/28 03:18:24;;;;;;;5.40;2.10;;;10.10;99.90;;;;;;5113771;28;20259;-73
2022/05/28 03:20:51;;;;;;;5.95;2.50;;;9.90;99.90;;;;;;5114226;28;20267;-73
2022/05/28 03:23:17;;;;;;;10.65;2.97;;;9.80;99.90;;;;;;5115245;28;20210;-72
2022/05/28 03:25:44;;;;;;;10.77;3.05;;;9.80;99.90;;;;;;5114664;28;20577;-72
2022/05/28 03:28:10;;;;;;;7.20;4.40;;;9.80;99.90;;;;;;5114819;28;20210;-73
2022/05/28 03:30:37;;;;;;;13.85;4.60;;;9.80;99.90;;;;;;5113568;28;20225;-73
2022/05/28 03:33:03;;;;;;;7.72;2.45;;;9.80;99.90;;;;;;5114799;28;20650;-73
2022/05/28 03:35:30;;;;;;;7.97;4.00;;;9.70;99.90;;;;;;5113339;28;20202;-72
2022/05/28 03:37:56;;;;;;;3.92;2.45;;;9.50;99.90;;;;;;5113522;28;20610;-73
2022/05/28 03:40:22;;;;;;;5.88;3.00;;;9.40;99.90;;;;;;5114871;28;20722;-73
2022/05/28 03:42:49;;;;;;;5.13;2.53;;;9.10;99.90;;;;;;5114749;28;20202;-73
2022/05/28 03:45:15;;;;;;;6.70;3.15;;;9.10;99.90;;;;;;5112917;28;20571;-74
2022/05/28 03:47:42;;;;;;;6.03;2.60;;;8.80;99.90;;;;;;5114224;28;20219;-74
2022/05/28 03:50:09;;;;;;;7.47;3.03;;;8.80;99.90;;;;;;5111959;28;20251;-73
2022/05/28 03:52:35;;;;;;;12.75;3.65;;;8.70;99.90;;;;;;5114080;28;20201;-73
2022/05/28 03:55:02;;;;;;;5.68;2.75;;;8.60;99.90;;;;;;5114674;28;20199;-73
2022/05/28 03:57:31;;;;;;;9.82;3.00;;;8.80;99.90;;;;;;5115071;28;20198;-73
2022/05/28 03:59:58;;;;;;;16.27;3.30;;;8.80;99.90;;;;;;5117902;28;20198;-73
2022/05/28 04:02:26;;;;;;;7.65;2.35;;;8.90;99.90;;;;;;5116644;28;20574;-73
2022/05/28 04:04:52;;;;;;;9.25;3.58;;;9.00;99.90;;;;;;5117906;28;20228;-73
2022/05/28 04:07:19;;;;;;;8.65;3.30;;;9.10;99.90;;;;;;5117741;28;20299;-73
2022/05/28 04:09:46;;;;;;;5.05;2.75;;;9.20;99.90;;;;;;5117792;28;20221;-74
2022/05/28 04:12:13;;;;;;;9.57;3.30;;;9.10;99.90;;;;;;5117394;28;20202;-73
2022/05/28 04:14:39;;;;;;;5.82;2.85;;;9.20;99.90;;;;;;5117917;28;20199;-73
2022/05/28 04:17:05;;;;;;;4.28;2.67;;;9.40;99.90;;;;;;5116828;28;20202;-73
2022/05/28 04:19:32;;;;;;;8.63;3.00;;;9.60;99.90;;;;;;5117390;28;20213;-73
2022/05/28 04:21:58;;;;;;;6.10;3.17;;;9.70;99.90;;;;;;5118387;28;20206;-73
2022/05/28 04:24:25;;;;;;;6.63;3.13;;;9.70;99.90;;;;;;5118337;28;20576;-73
2022/05/28 04:26:51;;;;;;;8.93;4.35;;;9.70;99.90;;;;;;5118171;28;20658;-73
2022/05/28 04:29:17;;;;;;;10.45;3.70;;;9.70;99.90;;;;;;5117799;28;20230;-73
2022/05/28 04:31:44;;;;;;;16.95;3.88;;;9.80;99.90;;;;;;5117317;28;20203;-73
2022/05/28 04:34:10;;;;;;;5.25;2.90;;;9.90;99.90;;;;;;5117699;28;20538;-73
2022/05/28 04:36:37;;;;;;;5.45;2.83;;;9.90;99.90;;;;;;5116581;28;20250;-73
2022/05/28 04:39:03;;;;;;;5.68;2.38;;;10.00;99.90;;;;;;5116441;28;20658;-73
2022/05/28 04:41:30;;;;;;;4.85;2.90;;;10.10;99.90;;;;;;5117677;28;20622;-73
2022/05/28 04:43:56;;;;;;;7.32;2.17;;;10.30;99.90;;;;;;5115869;28;20207;-73
2022/05/28 04:46:22;;;;;;;4.40;2.53;;;10.30;99.90;;;;;;5117284;28;20206;-74
2022/05/28 04:48:49;;;;;;;6.20;2.63;;;10.30;99.90;;;;;;5117690;28;20198;-74
2022/05/28 04:51:15;;;;;;;5.60;2.33;;;10.50;99.90;;;;;;5117290;28;20226;-73
2022/05/28 04:53:42;;;;;;;8.98;2.33;;;10.70;99.90;;;;;;5117406;28;20199;-73
2022/05/28 04:56:08;;;;;;;5.50;2.42;;;10.80;99.90;;;;;;5117232;28;20232;-73
2022/05/28 04:58:35;;;;;;;7.47;2.25;;;10.80;99.90;;;;;;5117042;28;20550;-73
2022/05/28 05:01:02;;;;;;;4.80;1.90;;;10.80;99.90;;;;;;5117261;28;20195;-73
2022/05/28 05:03:28;;;;;;;4.07;1.95;;;11.00;99.90;;;;;;5116679;28;20230;-73
2022/05/28 05:05:55;;;;;;;7.90;2.42;;;11.00;99.90;;;;;;5115615;28;20255;-73
2022/05/28 05:08:21;;;;;;;7.75;2.80;;;11.00;99.90;;;;;;5116177;27;20227;-73
2022/05/28 05:10:48;;;;;;;11.15;3.47;;;11.00;99.90;;;;;;5115779;28;20223;-73
2022/05/28 05:13:15;;;;;;;8.57;2.47;;;11.20;99.90;;;;;;5115038;28;20260;-73
2022/05/28 05:15:41;;;;;;;6.18;2.60;;;11.10;99.90;;;;;;5117160;28;20252;-73
2022/05/28 05:18:08;;;;;;;6.65;2.40;;;11.00;99.90;;;;;;5117228;28;20535;-73
2022/05/28 05:20:34;;;;;;;7.80;3.30;;;11.20;99.90;;;;;;5117027;28;20198;-73
2022/05/28 05:23:00;;;;;;;3.33;1.92;;;11.30;99.90;;;;;;5116739;28;20468;-73
2022/05/28 05:25:27;;;;;;;4.50;2.20;;;11.60;99.90;;;;;;5116672;28;20203;-74
2022/05/28 05:27:53;;;;;;;3.17;2.08;;;11.50;99.90;;;;;;5116574;28;20206;-74
2022/05/28 05:30:20;;;;;;;5.72;2.10;;;11.40;99.90;;;;;;5116740;28;20267;-74
2022/05/28 05:32:46;;;;;;;5.93;2.10;;;11.50;99.90;;;;;;5116299;28;20206;-73
2022/05/28 05:35:13;;;;;;;3.60;1.77;;;11.40;99.90;;;;;;5115779;28;20619;-73
2022/05/28 05:37:39;;;;;;;5.75;2.45;;;11.50;99.90;;;;;;5116457;28;20269;-74
2022/05/28 05:40:07;;;;;;;3.38;2.15;;;11.60;99.90;;;;;;5116251;28;20210;-73
2022/05/28 05:42:33;;;;;;;4.53;1.95;;;11.70;99.90;;;;;;5116339;28;20202;-73
2022/05/28 05:45:00;;;;;;;6.00;2.60;;;11.80;99.90;;;;;;5114663;28;20561;-73
2022/05/28 05:47:26;;;;;;;3.35;1.85;;;12.00;99.90;;;;;;5116112;28;20584;-75
2022/05/28 05:49:53;;;;;;;2.92;1.70;;;12.20;99.90;;;;;;5116177;28;20226;-73
2022/05/28 05:52:20;;;;;;;6.43;2.38;;;12.30;99.90;;;;;;5114639;28;20650;-73
2022/05/28 05:54:46;;;;;;;5.47;1.85;;;12.60;99.90;;;;;;5115707;27;20198;-73
2022/05/28 05:57:13;;;;;;;6.75;2.05;;;12.80;99.90;;;;;;5114639;28;20194;-73
2022/05/28 05:59:39;;;;;;;5.15;2.15;;;13.10;99.90;;;;;;5116600;28;20194;-73
2022/05/28 06:02:07;;;;;;;3.00;2.00;;;13.00;99.90;;;;;;5116201;28;20256;-73
2022/05/28 06:04:33;;;;;;;5.85;2.13;;;12.70;99.90;;;;;;5116114;28;20202;-73
2022/05/28 06:07:00;;;;;;;7.53;2.33;;;12.80;99.90;;;;;;5096894;28;20267;-72
2022/05/28 06:09:26;;;;;;;7.37;2.07;;;13.20;99.90;;;;;;5115581;28;20563;-72
2022/05/28 06:11:53;;;;;;;5.10;2.00;;;13.30;99.90;;;;;;5115689;28;20636;-73
2022/05/28 06:14:19;;;;;;;4.00;1.93;;;13.50;99.90;;;;;;5115931;28;20587;-73
2022/05/28 06:16:45;;;;;;;3.00;1.77;;;13.60;99.90;;;;;;5115757;28;20620;-73
2022/05/28 06:19:12;;;;;;;5.83;2.50;;;13.50;99.90;;;;;;5115603;28;20615;-72
2022/05/28 06:21:38;;;;;;;3.23;2.23;;;13.60;99.90;;;;;;5115232;28;20919;-73
2022/05/28 06:24:05;;;;;;;8.53;1.90;;;13.70;99.90;;;;;;5115366;28;20621;-73
2022/05/28 06:26:31;;;;;;;5.57;1.93;;;13.70;99.90;;;;;;5115524;28;20612;-73
2022/05/28 06:28:58;;;;;;;5.73;2.93;;;14.00;99.90;;;;;;5114930;28;20691;-73
2022/05/28 06:31:24;;;;;;;3.20;2.20;;;14.10;99.90;;;;;;5114643;28;21104;-73
2022/05/28 06:33:51;;;;;;;6.60;1.77;;;14.10;99.90;;;;;;5115231;28;20612;-73
2022/05/28 06:36:17;;;;;;;8.80;2.10;;;14.30;99.90;;;;;;5115549;28;21023;-73
2022/05/28 06:38:46;;;;;;;8.93;2.20;;;14.40;99.90;;;;;;5115602;28;20576;-73
2022/05/28 06:41:13;;;;;;;5.40;2.00;;;14.10;99.90;;;;;;5115419;28;20599;-73
2022/05/28 06:43:39;;;;;;;7.50;1.93;;;14.50;99.90;;;;;;5115976;28;20631;-73
2022/05/28 06:46:08;;;;;;;9.13;2.60;;;14.50;99.90;;;;;;5116855;28;20621;-73
2022/05/28 06:48:36;;;;;;;6.23;1.80;;;14.70;99.90;;;;;;5116299;28;20712;-73
2022/05/28 06:51:03;;;;;;;5.83;2.03;;;14.80;99.90;;;;;;5115323;28;20648;-73
2022/05/28 06:53:31;;;;;;;7.90;2.90;;;15.00;99.90;;;;;;5115950;27;20618;-73
2022/05/28 06:55:57;;;;;;;3.83;2.03;;;15.30;99.90;;;;;;5115684;28;20604;-72
2022/05/28 06:58:24;;;;;;;2.27;1.97;;;15.00;99.90;;;;;;5115224;28;20608;-74
2022/05/28 07:00:50;;;;;;;5.13;1.90;;;15.10;99.90;;;;;;5115327;28;20623;-74
2022/05/28 07:03:24;;;;;;;3.83;2.03;;;15.30;99.90;;;;;;5114208;28;20645;-74
2022/05/28 07:05:51;;;;;;;4.27;1.93;;;15.50;99.90;;;;;;5115509;28;20648;-73
2022/05/28 07:08:18;;;;;;;2.57;1.70;;;15.60;99.90;;;;;;5113735;28;20640;-73
2022/05/28 07:10:49;;;;;;;3.50;1.73;;;15.50;99.90;;;;;;5114733;28;20998;-73
2022/05/28 07:13:17;;;;;;;3.40;1.80;;;15.70;99.90;;;;;;5114459;28;20575;-73
2022/05/28 07:15:44;;;;;;;4.77;1.90;;;15.90;99.90;;;;;;5112848;28;21217;-74
2022/05/28 07:18:11;;;;;;;6.43;2.00;;;16.00;99.90;;;;;;5114532;28;21124;-73
2022/05/28 07:20:37;;;;;;;4.33;1.80;;;16.20;99.90;;;;;;5114649;28;20620;-73
2022/05/28 07:23:25;;;;;;;6.10;2.03;;;16.30;99.90;;;;;;5114597;28;20616;-74
2022/05/28 07:26:14;;;;;;;7.60;2.37;;;16.60;99.90;;;;;;5114666;28;20581;-74
2022/05/28 07:28:42;;;;;;;4.30;1.90;;;16.60;99.90;;;;;;5113284;28;21246;-73
2022/05/28 07:31:11;;;;;;;4.93;2.07;;;16.00;99.90;;;;;;5113415;28;20667;-74
2022/05/28 07:33:40;;;;;;;6.30;1.97;;;16.50;99.90;;;;;;5114030;28;21261;-73
2022/05/28 07:36:10;;;;;;;9.60;2.10;;;16.50;99.90;;;;;;5095911;28;20632;-74
2022/05/28 07:38:37;;;;;;;18.63;3.40;;;16.80;99.90;;;;;;5115458;28;20615;-74
2022/05/28 07:41:06;;;;;;;5.53;2.20;;;17.00;99.90;;;;;;5115828;28;20619;-74
2022/05/28 07:43:33;;;;;;;5.30;2.33;;;16.90;99.90;;;;;;5115547;28;20604;-74
2022/05/28 07:46:00;;;;;;;5.07;1.90;;;16.80;99.90;;;;;;5114007;28;20983;-72
2022/05/28 07:48:26;;;;;;;4.27;2.10;;;17.00;99.90;;;;;;5114530;28;20608;-72
2022/05/28 07:50:53;;;;;;;11.03;3.73;;;17.50;99.90;;;;;;5114717;28;21205;-73
2022/05/28 07:53:19;;;;;;;8.60;2.37;;;17.30;99.90;;;;;;5114613;28;20605;-73
2022/05/28 07:55:46;;;;;;;3.37;1.80;;;17.50;99.90;;;;;;5112468;28;20966;-73
2022/05/28 07:58:17;;;;;;;8.50;2.17;;;17.20;99.90;;;;;;5114940;28;20605;-73
2022/05/28 08:00:46;;;;;;;7.30;3.00;;;17.40;99.90;;;;;;5114625;28;21071;-74
2022/05/28 08:03:13;;;;;;;3.37;1.80;;;17.30;99.90;;;;;;5114421;28;21183;-73
2022/05/28 08:05:43;;;;;;;2.90;1.73;;;17.30;99.90;;;;;;5114564;28;21040;-73
2022/05/28 08:08:09;;;;;;;4.07;1.90;;;17.10;99.90;;;;;;5114009;28;20648;-74
2022/05/28 08:10:36;;;;;;;8.07;2.60;;;17.00;99.90;;;;;;5114581;28;21026;-73
2022/05/28 08:13:06;;;;;;;7.07;2.53;;;17.20;99.90;;;;;;5114074;28;20616;-74
2022/05/28 08:15:38;;;;;;;2.90;1.70;;;17.50;99.90;;;;;;5114355;28;20666;-73
2022/05/28 08:18:05;;;;;;;4.13;2.07;;;17.60;99.90;;;;;;5114315;28;20633;-74
2022/05/28 08:23:19;;;;;;;6.13;2.10;;;17.40;99.90;;;;;;5115086;28;21164;-73
2022/05/28 08:25:47;;;;;;;2.90;1.70;;;17.30;99.90;;;;;;5114385;28;20600;-73
2022/05/28 08:28:16;;;;;;;5.77;2.40;;;17.30;99.90;;;;;;5115167;28;20653;-73
2022/05/28 08:30:42;;;;;;;5.30;2.07;;;17.30;99.90;;;;;;5112431;28;20713;-73
2022/05/28 08:33:10;;;;;;;6.73;2.33;;;17.40;99.90;;;;;;5114672;28;20947;-73
2022/05/28 08:35:38;;;;;;;4.70;2.20;;;17.70;99.90;;;;;;5113897;28;20612;-73
2022/05/28 08:38:08;;;;;;;3.90;2.30;;;17.70;99.90;;;;;;5114164;28;21094;-73
2022/05/28 08:40:45;;;;;;;6.60;2.33;;;17.50;99.90;;;;;;5114198;28;20679;-73
2022/05/28 08:43:15;;;;;;;7.20;2.30;;;18.10;99.90;;;;;;5115510;28;20587;-73
2022/05/28 08:45:44;;;;;;;6.70;2.10;;;18.20;99.90;;;;;;5115201;28;20622;-73
2022/05/28 08:48:15;;;;;;;6.47;2.30;;;18.50;99.90;;;;;;5118228;28;20727;-73
2022/05/28 08:51:08;;;;;;;4.70;2.40;;;18.80;99.90;;;;;;5118172;28;20639;-73
2022/05/28 08:53:43;;;;;;;2.40;2.20;;;19.00;99.90;;;;;;5112328;28;20629;-73
2022/05/28 08:56:14;;;;;;;3.60;1.93;;;18.70;99.90;;;;;;5117942;28;21043;-74
2022/05/28 08:58:42;;;;;;;3.97;2.80;;;18.70;99.90;;;;;;5117935;28;20576;-73
2022/05/28 09:01:19;;;;;;;2.50;2.10;;;18.50;99.90;;;;;;5116364;28;20992;-73
2022/05/28 09:04:00;;;;;;;6.63;3.17;;;18.20;99.90;;;;;;5115250;28;20608;-73
2022/05/28 09:06:36;;;;;;;5.43;2.40;;;18.50;99.90;;;;;;5116945;28;21016;-74
2022/05/28 09:09:03;;;;;;;8.60;2.90;;;18.60;99.90;;;;;;5117102;28;20720;-74
2022/05/28 09:11:51;;;;;;;7.33;2.37;;;19.00;99.90;;;;;;5114997;28;20720;-74
2022/05/28 09:14:25;;;;;;;5.73;2.60;;;18.60;99.90;;;;;;5117118;28;20608;-73
2022/05/28 09:16:58;;;;;;;3.77;2.30;;;18.70;99.90;;;;;;5117582;28;20584;-73
2022/05/28 09:19:30;;;;;;;9.10;2.70;;;19.10;99.90;;;;;;5117210;28;21141;-74
2022/05/28 09:21:57;;;;;;;4.90;2.00;;;19.20;99.90;;;;;;5117417;28;20592;-73
2022/05/28 09:24:26;;;;;;;5.33;2.00;;;18.80;99.90;;;;;;5115893;28;20593;-73
2022/05/28 09:27:15;;;;;;;17.03;2.70;;;18.00;99.90;;;;;;5118013;28;20611;-73
2022/05/28 09:29:51;;;;;;;5.43;2.30;;;18.40;99.90;;;;;;5116930;28;20609;-74
2022/05/28 09:32:52;;;;;;;3.23;2.07;;;18.60;99.90;;;;;;5117352;28;20628;-74
2022/05/28 09:35:25;;;;;;;4.00;2.00;;;18.90;99.90;;;;;;5064540;28;20608;-73
2022/05/28 09:38:17;;;;;;;5.57;2.20;;;19.00;99.90;;;;;;5117270;28;21024;-73
2022/05/28 09:40:50;;;;;;;7.23;2.00;;;19.30;99.90;;;;;;5116656;28;20620;-73
2022/05/28 09:43:42;;;;;;;1.83;1.73;;;19.30;99.90;;;;;;5117163;28;20600;-73
2022/05/28 09:46:30;;;;;;;2.87;1.83;;;19.00;99.90;;;;;;5116426;28;20676;-73
2022/05/28 09:49:17;;;;;;;5.47;2.30;;;19.90;99.90;;;;;;5116586;28;20608;-73
2022/05/28 09:51:55;;;;;;;5.20;2.67;;;;;;;;;;5115873;28;20639;-73
2022/05/28 09:54:30;;;;;;;3.23;1.83;;;19.50;99.90;;;;;;5116626;28;20572;-73
2022/05/28 09:56:58;;;;;;;3.20;2.50;;;20.20;99.90;;;;;;5115927;28;20626;-73
2022/05/28 09:59:35;;;;;;;4.40;1.93;;;20.10;99.90;;;;;;5116467;28;20666;-73
2022/05/28 10:02:19;;;;;;;3.50;2.27;;;18.70;99.90;;;;;;5113997;28;21063;-74
2022/05/28 10:04:50;;;;;;;3.90;2.00;;;18.80;99.90;;;;;;5116192;28;20577;-73
2022/05/28 10:07:29;;;;;;;10.73;2.40;;;19.60;99.90;;;;;;5115626;28;20644;-73
2022/05/28 10:09:55;;;;;;;5.50;2.50;;;19.40;99.90;;;;;;5115761;28;21179;-73
2022/05/28 10:12:28;;;;;;;7.10;1.90;;;19.50;99.90;;;;;;5115778;28;20652;-73
2022/05/28 10:15:22;;;;;;;6.23;2.00;;;19.40;99.90;;;;;;5113819;28;20975;-74
2022/05/28 10:17:58;;;;;;;5.47;2.40;;;20.00;99.90;;;;;;5115198;28;20620;-73
2022/05/28 10:20:25;;;;;;;3.10;1.70;;;19.70;99.90;;;;;;5115433;28;20572;-73
2022/05/28 10:22:54;;;;;;;2.33;2.13;;;20.30;99.90;;;;;;5115451;28;20623;-73
2022/05/28 10:25:41;;;;;;;3.73;2.17;;;20.20;99.90;;;;;;5115655;28;20612;-73
2022/05/28 10:28:08;;;;;;;5.90;2.47;;;19.90;99.90;;;;;;5115347;28;20592;-74
2022/05/28 10:30:38;;;;;;;4.37;1.93;;;20.20;99.90;;;;;;5114820;28;20977;-74
2022/05/28 10:33:16;;;;;;;4.33;2.00;;;20.00;99.90;;;;;;5114733;28;20613;-74
2022/05/28 10:35:43;;;;;;;5.50;2.40;;;20.00;99.90;;;;;;5115797;28;20577;-74
2022/05/28 10:38:25;;;;;;;4.97;2.20;;;19.90;99.90;;;;;;5114505;28;20613;-74
2022/05/28 10:41:00;;;;;;;4.40;1.93;;;19.30;99.90;;;;;;5115282;28;20598;-74
2022/05/28 10:43:32;;;;;;;2.70;1.87;;;19.60;99.90;;;;;;5115497;28;20969;-74
2022/05/28 10:46:12;;;;;;;6.77;2.60;;;19.60;99.90;;;;;;5114929;28;20620;-74
2022/05/28 10:49:11;;;;;;;3.70;1.80;;;18.80;99.90;;;;;;5115481;28;20624;-74
2022/05/28 10:51:50;;;;;;;6.80;1.90;;;17.80;99.90;;;;;;5108930;28;21115;-74
2022/05/28 10:54:39;;;;;;;4.10;1.97;;;18.40;99.90;;;;;;5115227;28;20627;-74
2022/05/28 10:57:33;;;;;;;4.57;2.53;;;18.80;99.90;;;;;;5107482;28;20629;-73
2022/05/28 11:00:07;;;;;;;3.10;1.90;;;19.60;99.90;;;;;;5114281;28;20580;-73
2022/05/28 11:02:44;;;;;;;4.10;2.03;;;20.50;99.90;;;;;;5115288;28;20635;-74
2022/05/28 11:05:54;;;;;;;2.43;2.23;;;19.80;99.90;;;;;;5115040;28;20647;-73
2022/05/28 11:08:39;;;;;;;2.10;1.80;;;19.80;99.90;;;;;;5113487;28;20640;-74
2022/05/28 11:11:26;;;;;;;4.20;2.03;;;20.10;99.90;;;;;;5115059;28;20704;-74
2022/05/28 11:13:59;;;;;;;2.40;2.20;;;21.00;99.90;;;;;;5114749;28;20584;-74
2022/05/28 11:16:38;;;;;;;2.03;1.90;;;21.60;99.90;;;;;;5113648;28;20617;-73
2022/05/28 11:19:13;;;;;;;3.50;2.00;;;21.20;99.90;;;;;;5114311;28;20572;-74
2022/05/28 11:21:49;;;;;;;5.60;3.30;;;21.40;99.90;;;;;;5114550;28;20576;-73
2022/05/28 11:24:46;;;;;;;8.53;2.20;;;21.60;99.90;;;;;;5114144;28;20579;-74
2022/05/28 11:27:18;;;;;;;2.63;1.80;;;21.70;99.90;;;;;;5114584;28;20591;-74
2022/05/28 11:30:04;;;;;;;1.73;1.63;;;22.50;99.90;;;;;;5115076;28;20616;-73
2022/05/28 11:32:49;;;;;;;2.40;1.57;;;22.60;99.90;;;;;;5115018;28;20723;-73
2022/05/28 11:35:38;;;;;;;9.60;1.83;;;22.20;99.90;;;;;;5115304;28;21034;-74
2022/05/28 11:38:13;;;;;;;2.03;1.80;;;21.90;99.90;;;;;;5114807;28;20981;-71
2022/05/28 11:41:07;;;;;;;3.33;2.20;;;22.50;99.90;;;;;;5114934;28;20925;-75
2022/05/28 11:43:49;;;;;;;4.13;1.70;;;22.80;99.90;;;;;;5115567;28;20971;-72
2022/05/28 11:46:40;;;;;;;1.87;1.77;;;22.40;99.90;;;;;;5114564;28;20573;-70
2022/05/28 11:52:55;;;;;;;1.60;1.50;;;21.80;99.90;;;;;;5051429;28;20665;-71
2022/05/28 11:55:23;;;;;;;2.37;1.57;;;22.00;99.90;;;;;;5114381;28;21126;-71
2022/05/28 11:58:02;;;;;;;4.50;1.87;;;21.50;99.90;;;;;;5114251;28;20605;-71
2022/05/28 12:00:34;;;;;;;2.67;1.73;;;20.90;99.90;;;;;;5114304;28;20728;-71
2022/05/28 12:03:25;;;;;;;2.37;1.73;;;20.80;99.90;;;;;;5114291;28;20608;-72
2022/05/28 12:06:18;;;;;;;2.47;1.90;;;21.00;99.90;;;;;;5114732;28;20632;-71
2022/05/28 12:08:58;;;;;;;2.57;1.90;;;21.10;99.90;;;;;;5113882;28;20656;-71
2022/05/28 12:11:30;;;;;;;2.13;1.90;;;21.70;99.90;;;;;;5115119;28;20629;-75
2022/05/28 12:14:00;;;;;;;2.97;2.00;;;22.30;99.90;;;;;;5117312;28;21022;-75
2022/05/28 12:16:32;;;;;;;2.30;1.67;;;22.80;99.90;;;;;;5117745;28;20585;-74
2022/05/28 12:19:02;;;;;;;2.70;2.03;;;24.60;99.90;;;;;;5119220;28;20922;-74
2022/05/28 12:21:31;;;;;;;4.60;1.77;;;25.30;99.90;;;;;;5122238;27;20616;-74
2022/05/28 12:24:27;;;;;;;5.70;1.83;;;25.20;99.90;;;;;;5121638;28;20671;-74
2022/05/28 12:27:11;;;;;;;2.10;1.43;;;23.50;99.90;;;;;;5119540;28;21175;-74
2022/05/28 12:29:45;;;;;;;2.73;1.90;;;24.20;99.90;;;;;;5120434;28;20593;-74
2022/05/28 12:32:42;;;;;;;2.07;1.97;;;22.80;99.90;;;;;;5120519;28;20628;-74
2022/05/28 12:35:24;;;;;;;2.10;1.87;;;23.30;99.90;;;;;;5115142;27;20983;-74
2022/05/28 12:38:02;;;;;;;4.80;2.20;;;22.50;99.90;;;;;;5101577;28;20962;-74
2022/05/28 12:40:47;;;;;;;2.57;2.03;;;22.10;99.90;;;;;;5120201;28;20652;-74
2022/05/28 12:43:33;;;;;;;1.80;1.70;;;21.90;99.90;;;;;;5119315;28;20668;-75
2022/05/28 12:46:31;;;;;;;2.63;1.73;;;21.40;99.90;;;;;;5118857;28;20643;-75
2022/05/28 12:49:26;;;;;;;3.53;1.80;;;21.50;99.90;;;;;;5118875;27;20627;-74
2022/05/28 12:52:08;;;;;;;1.90;1.80;;;20.60;99.90;;;;;;5115783;28;20671;-74
2022/05/28 12:54:37;;;;;;;2.60;1.80;;;19.60;99.90;;;;;;5117522;28;21178;-74
2022/05/28 12:57:14;;;;;;;2.40;1.83;;;19.60;99.90;;;;;;5118738;28;20607;-74
2022/05/28 12:59:47;;;;;;;2.43;2.07;;;19.80;99.90;;;;;;5119045;28;20660;-73
2022/05/28 13:02:16;;;;;;;2.43;1.93;;;20.70;99.90;;;;;;5119833;28;20584;-73
2022/05/28 13:04:47;;;;;;;2.13;1.93;;;21.30;99.90;;;;;;5119287;28;20620;-74
2022/05/28 13:07:27;;;;;;;5.57;1.90;;;22.00;99.90;;;;;;5120373;28;20639;-74
2022/05/28 13:10:11;;;;;;;1.97;1.73;;;23.90;99.90;;;;;;5117943;28;21012;-74
2022/05/28 13:13:09;;;;;;;4.60;1.90;;;25.40;99.90;;;;;;5117662;28;20647;-74
2022/05/28 13:15:53;;;;;;;3.93;1.73;;;25.10;99.90;;;;;;5118574;27;20564;-74
2022/05/28 13:19:17;;;;;;;3.40;2.00;;;25.30;99.90;;;;;;5118811;28;21224;-74
2022/05/28 13:22:25;;;;;;;2.27;1.80;;;23.90;99.90;;;;;;5056041;28;20595;-74